createdAt,value
2019-01-04T00:00:39.673Z,8.73
2019-01-04T00:03:30.163Z,8.53
2019-01-04T00:06:20.773Z,7.50
2019-01-04T00:09:10.663Z,7.97
2019-01-04T00:12:00.929Z,7.93
2019-01-04T00:14:51.627Z,8.73
2019-01-04T00:17:42.138Z,8.27
2019-01-04T00:20:32.362Z,8.23
2019-01-04T00:23:22.331Z,7.40
2019-01-04T00:26:13.154Z,7.83
2019-01-04T00:29:03.715Z,6.77
2019-01-04T00:31:53.783Z,6.50
2019-01-04T00:34:44.084Z,6.80
2019-01-04T00:37:34.378Z,7.10
2019-01-04T00:40:24.393Z,6.90
2019-01-04T00:43:14.474Z,6.90
2019-01-04T00:46:05.191Z,7.10
2019-01-04T00:48:55.375Z,7.27
2019-01-04T00:51:45.330Z,7.33
2019-01-04T00:54:35.746Z,6.10
2019-01-04T00:57:56.574Z,8.67
2019-01-04T01:01:20.612Z,10.87
2019-01-04T01:04:54.945Z,9.40
2019-01-04T01:08:20.214Z,6.23
2019-01-04T01:11:51.257Z,5.33
2019-01-04T01:15:25.424Z,8.30
2019-01-04T01:18:42.518Z,8.73
2019-01-04T01:22:27.274Z,7.90
2019-01-04T01:26:11.518Z,7.53
2019-01-04T01:29:32.198Z,7.97
2019-01-04T01:32:46.056Z,7.30
2019-01-04T01:36:24.864Z,7.67
2019-01-04T01:39:54.946Z,7.00
2019-01-04T01:43:31.530Z,6.67
2019-01-04T01:46:29.454Z,7.20
2019-01-04T01:49:53.689Z,7.27
2019-01-04T01:52:47.101Z,6.43
2019-01-04T01:55:37.430Z,8.07
2019-01-04T01:58:27.704Z,7.13
2019-01-04T02:01:17.721Z,7.03
2019-01-04T02:04:07.905Z,6.83
2019-01-04T02:06:58.451Z,7.70
2019-01-04T02:09:48.578Z,6.90
2019-01-04T02:12:39.451Z,8.10
2019-01-04T02:15:29.995Z,7.57
2019-01-04T02:18:20.282Z,7.67
2019-01-04T02:21:10.574Z,7.33
2019-01-04T02:24:00.861Z,6.90
2019-01-04T02:26:51.766Z,7.10
2019-01-04T02:29:41.939Z,6.27
2019-01-04T02:32:31.899Z,6.77
2019-01-04T02:35:22.214Z,5.90
2019-01-04T02:38:12.792Z,5.13
2019-01-04T02:41:03.250Z,5.40
2019-01-04T02:43:54.062Z,4.33
2019-01-04T02:46:44.088Z,5.37
2019-01-04T02:49:34.273Z,4.70
2019-01-04T02:52:25.121Z,4.83
2019-01-04T02:55:15.913Z,5.03
2019-01-04T02:58:06.210Z,4.67
2019-01-04T03:00:56.572Z,4.60
2019-01-04T03:03:46.830Z,4.53
2019-01-04T03:06:37.394Z,4.10
2019-01-04T03:09:27.709Z,4.37
2019-01-04T03:12:18.102Z,5.00
2019-01-04T03:15:08.416Z,3.87
2019-01-04T03:17:58.533Z,4.40
2019-01-04T03:20:48.740Z,4.10
2019-01-04T03:23:38.966Z,4.83
2019-01-04T03:26:29.286Z,6.47
2019-01-04T03:29:19.430Z,7.77
2019-01-04T03:32:09.740Z,6.57
2019-01-04T03:35:00.046Z,5.47
2019-01-04T03:37:50.479Z,5.40
2019-01-04T03:40:40.811Z,5.73
2019-01-04T03:43:30.845Z,6.20
2019-01-04T03:46:20.803Z,6.77
2019-01-04T03:49:11.117Z,6.50
2019-01-04T03:52:01.171Z,5.50
2019-01-04T03:54:51.494Z,6.27
2019-01-04T03:57:41.851Z,6.73
2019-01-04T04:00:32.293Z,6.40
2019-01-04T04:03:22.627Z,5.80
2019-01-04T04:06:12.946Z,6.50
2019-01-04T04:09:04.087Z,6.10
2019-01-04T04:11:54.062Z,4.90
2019-01-04T04:14:44.067Z,5.07
2019-01-04T04:17:34.950Z,4.90
2019-01-04T04:20:25.059Z,4.97
2019-01-04T04:23:15.410Z,4.40
2019-01-04T04:26:05.550Z,5.10
2019-01-04T04:28:56.379Z,5.50
2019-01-04T04:31:47.064Z,6.10
2019-01-04T04:34:37.582Z,5.60
2019-01-04T04:37:28.026Z,5.00
2019-01-04T04:40:18.462Z,5.10
2019-01-04T04:43:08.799Z,5.00
2019-01-04T04:45:59.034Z,4.90
2019-01-04T04:48:49.374Z,5.30
2019-01-04T04:51:39.726Z,5.23
2019-01-04T04:54:29.817Z,5.03
2019-01-04T04:57:19.886Z,5.73
2019-01-04T05:00:10.522Z,5.37
2019-01-04T05:03:00.862Z,5.40
2019-01-04T05:05:51.530Z,4.60
2019-01-04T05:08:42.083Z,4.63
2019-01-04T05:11:32.161Z,5.17
2019-01-04T05:14:22.183Z,5.30
2019-01-04T05:17:12.470Z,7.17
2019-01-04T05:20:02.421Z,6.57
2019-01-04T05:22:52.714Z,7.13
2019-01-04T05:25:43.010Z,7.67
2019-01-04T05:28:33.398Z,7.37
2019-01-04T05:31:23.801Z,7.87
2019-01-04T05:34:15.482Z,8.23
2019-01-04T05:37:06.029Z,8.33
2019-01-04T05:39:56.106Z,9.30
2019-01-04T05:42:46.341Z,8.03
2019-01-04T05:45:36.497Z,8.80
2019-01-04T05:48:27.257Z,8.47
2019-01-04T05:51:17.769Z,7.13
2019-01-04T05:54:07.763Z,7.07
2019-01-04T05:56:58.205Z,6.87
2019-01-04T05:59:48.422Z,6.33
2019-01-04T06:02:38.845Z,7.23
2019-01-04T06:05:29.049Z,8.00
2019-01-04T06:08:19.262Z,8.47
2019-01-04T06:11:09.505Z,8.57
2019-01-04T06:13:59.497Z,8.03
2019-01-04T06:16:49.722Z,9.43
2019-01-04T06:19:39.761Z,9.03
2019-01-04T06:22:29.921Z,9.47
2019-01-04T06:25:20.188Z,9.93
2019-01-04T06:28:11.085Z,11.87
2019-01-04T06:31:01.478Z,12.47
2019-01-04T06:33:51.554Z,14.67
2019-01-04T06:36:41.618Z,12.93
2019-01-04T06:39:31.622Z,13.63
2019-01-04T06:42:21.783Z,13.03
2019-01-04T06:45:12.618Z,12.67
2019-01-04T06:48:02.798Z,11.13
2019-01-04T06:50:52.907Z,11.33
2019-01-04T06:53:43.189Z,11.53
2019-01-04T06:56:33.386Z,13.13
2019-01-04T06:59:24.374Z,12.70
2019-01-04T07:02:15.177Z,14.73
2019-01-04T07:05:05.226Z,14.33
2019-01-04T07:07:55.251Z,13.63
2019-01-04T07:10:45.529Z,14.43
2019-01-04T07:13:35.475Z,13.60
2019-01-04T07:16:25.791Z,14.63
2019-01-04T07:19:16.001Z,14.00
2019-01-04T07:22:06.199Z,13.40
2019-01-04T07:24:56.303Z,14.57
2019-01-04T07:27:46.622Z,14.60
2019-01-04T07:30:36.966Z,14.87
2019-01-04T07:33:26.950Z,14.77
2019-01-04T07:36:17.374Z,15.47
2019-01-04T07:39:07.758Z,14.63
2019-01-04T07:41:57.678Z,15.03
2019-01-04T07:44:47.616Z,13.77
2019-01-04T07:47:38.016Z,14.23
2019-01-04T07:50:28.278Z,15.03
2019-01-04T07:53:18.689Z,14.57
2019-01-04T07:56:09.277Z,14.03
2019-01-04T07:58:59.310Z,14.30
2019-01-04T08:01:49.733Z,13.77
2019-01-04T08:04:39.798Z,13.87
2019-01-04T08:07:30.109Z,13.40
2019-01-04T08:10:20.391Z,13.23
2019-01-04T08:13:10.846Z,12.40
2019-01-04T08:16:00.867Z,13.90
2019-01-04T08:18:50.778Z,13.37
2019-01-04T08:21:41.275Z,12.57
2019-01-04T08:24:32.214Z,13.30
2019-01-04T08:27:22.556Z,12.63
2019-01-04T08:30:14.852Z,13.37
2019-01-04T08:33:05.617Z,12.37
2019-01-04T08:35:55.687Z,12.40
2019-01-04T08:38:45.701Z,12.17
2019-01-04T08:41:36.161Z,11.90
2019-01-04T08:44:26.601Z,12.10
2019-01-04T08:47:16.802Z,11.27
2019-01-04T08:50:08.802Z,11.30
2019-01-04T08:52:59.610Z,11.60
2019-01-04T08:55:49.872Z,10.97
2019-01-04T08:58:40.242Z,11.87
2019-01-04T09:01:30.715Z,11.00
2019-01-04T09:04:21.197Z,10.03
2019-01-04T09:07:11.487Z,10.80
2019-01-04T09:10:01.505Z,10.17
2019-01-04T09:12:51.587Z,11.70
2019-01-04T09:15:42.750Z,11.23
2019-01-04T09:18:33.019Z,10.33
2019-01-04T09:21:23.157Z,11.37
2019-01-04T09:24:13.422Z,10.30
2019-01-04T09:27:03.790Z,11.40
2019-01-04T09:29:54.215Z,10.37
2019-01-04T09:32:44.376Z,10.73
2019-01-04T09:35:34.608Z,11.40
2019-01-04T09:38:24.860Z,10.57
2019-01-04T09:41:36.054Z,11.87
2019-01-04T09:44:26.111Z,12.27
2019-01-04T09:47:16.305Z,12.80
2019-01-04T09:50:07.490Z,12.83
2019-01-04T09:52:57.790Z,12.57
2019-01-04T09:55:48.109Z,12.67
2019-01-04T09:58:38.546Z,13.27
2019-01-04T10:01:28.942Z,13.60
2019-01-04T10:04:19.158Z,14.17
2019-01-04T10:07:09.597Z,14.10
2019-01-04T10:10:00.015Z,14.77
2019-01-04T10:12:50.214Z,14.50
2019-01-04T10:15:40.450Z,13.17
2019-01-04T10:18:30.479Z,13.67
2019-01-04T10:21:20.675Z,14.53
2019-01-04T10:24:11.191Z,14.47
2019-01-04T10:27:02.562Z,15.73
2019-01-04T10:29:52.854Z,16.77
2019-01-04T10:32:42.886Z,16.17
2019-01-04T10:35:33.222Z,15.00
2019-01-04T10:38:23.751Z,17.43
2019-01-04T10:41:14.398Z,17.17
2019-01-04T10:44:05.245Z,16.37
2019-01-04T10:46:55.585Z,16.60
2019-01-04T10:49:45.522Z,17.87
2019-01-04T10:52:35.525Z,17.63
2019-01-04T10:55:26.161Z,18.57
2019-01-04T10:58:16.722Z,17.93
2019-01-04T11:01:06.870Z,19.77
2019-01-04T11:03:58.243Z,19.50
2019-01-04T11:06:48.415Z,21.70
2019-01-04T11:09:38.614Z,21.93
2019-01-04T11:12:28.878Z,21.90
2019-01-04T11:15:19.802Z,22.37
2019-01-04T11:18:10.071Z,23.47
2019-01-04T11:21:02.294Z,22.83
2019-01-04T11:24:30.665Z,23.17
2019-01-04T11:27:36.987Z,21.97
2019-01-04T11:30:49.870Z,22.53
2019-01-04T11:34:39.665Z,22.10
2019-01-04T11:38:02.401Z,21.30
2019-01-04T11:41:32.347Z,22.17
2019-01-04T11:44:45.507Z,20.67
2019-01-04T11:47:57.018Z,21.07
2019-01-04T11:51:14.362Z,20.93
2019-01-04T11:54:09.666Z,20.53
2019-01-04T11:56:59.678Z,20.90
2019-01-04T11:59:49.714Z,18.70
2019-01-04T12:02:39.853Z,20.90
2019-01-04T12:05:30.069Z,20.43
2019-01-04T12:08:20.086Z,20.83
2019-01-04T12:11:10.570Z,20.70
2019-01-04T12:14:00.962Z,19.57
2019-01-04T12:16:51.502Z,19.87
2019-01-04T12:19:41.642Z,21.17
2019-01-04T12:22:32.512Z,21.13
2019-01-04T12:25:22.855Z,21.47
2019-01-04T12:28:12.778Z,21.80
2019-01-04T12:31:03.135Z,24.00
2019-01-04T12:33:53.318Z,22.13
2019-01-04T12:36:43.379Z,23.53
2019-01-04T12:39:34.525Z,23.37
2019-01-04T12:42:25.070Z,22.20
2019-01-04T12:45:15.314Z,22.30
2019-01-04T12:48:05.483Z,22.07
2019-01-04T12:50:55.972Z,20.60
2019-01-04T12:53:46.297Z,19.73
2019-01-04T12:56:36.595Z,18.07
2019-01-04T12:59:27.360Z,21.17
2019-01-04T13:02:17.658Z,19.17
2019-01-04T13:05:07.810Z,19.30
2019-01-04T13:07:58.674Z,20.47
2019-01-04T13:10:50.400Z,20.33
2019-01-04T13:13:40.534Z,19.67
2019-01-04T13:16:30.934Z,19.63
2019-01-04T13:19:25.612Z,21.30
2019-01-04T13:22:12.491Z,19.43
2019-01-04T13:25:02.989Z,20.47
2019-01-04T13:27:53.871Z,19.73
2019-01-04T13:30:44.172Z,20.33
2019-01-04T13:33:34.490Z,19.17
2019-01-04T13:36:24.830Z,19.30
2019-01-04T13:39:15.433Z,29.67
2019-01-04T13:42:05.765Z,22.97
2019-01-04T13:44:55.866Z,28.33
2019-01-04T13:47:45.906Z,22.97
2019-01-04T13:50:35.859Z,18.00
2019-01-04T13:53:26.530Z,20.27
2019-01-04T13:56:16.957Z,18.90
2019-01-04T13:59:07.809Z,19.30
2019-01-04T14:01:58.011Z,17.17
2019-01-04T14:04:48.262Z,19.30
2019-01-04T14:07:38.494Z,19.00
2019-01-04T14:10:28.575Z,17.70
2019-01-04T14:13:18.812Z,19.00
2019-01-04T14:16:08.906Z,19.50
2019-01-04T14:18:59.335Z,18.53
2019-01-04T14:21:49.798Z,18.27
2019-01-04T14:24:40.226Z,18.47
2019-01-04T14:27:31.506Z,18.33
2019-01-04T14:30:22.778Z,18.37
2019-01-04T14:33:13.960Z,19.47
2019-01-04T14:36:04.270Z,18.60
2019-01-04T14:38:54.254Z,18.97
2019-01-04T14:41:44.658Z,17.73
2019-01-04T14:44:34.649Z,18.87
2019-01-04T14:47:25.475Z,18.87
2019-01-04T14:50:15.574Z,18.60
2019-01-04T14:53:06.920Z,18.63
2019-01-04T14:55:58.258Z,17.53
2019-01-04T14:58:48.626Z,15.40
2019-01-04T15:01:38.875Z,15.87
2019-01-04T15:04:28.997Z,12.57
2019-01-04T15:07:19.255Z,15.13
2019-01-04T15:10:10.077Z,15.23
2019-01-04T15:13:00.313Z,15.20
2019-01-04T15:15:50.734Z,13.83
2019-01-04T15:18:40.778Z,16.10
2019-01-04T15:21:30.733Z,16.53
2019-01-04T15:24:21.426Z,15.00
2019-01-04T15:27:11.802Z,15.60
2019-01-04T15:30:02.068Z,14.43
2019-01-04T15:32:53.401Z,13.77
2019-01-04T15:35:43.391Z,14.03
2019-01-04T15:38:36.279Z,12.53
2019-01-04T15:41:25.138Z,13.10
2019-01-04T15:44:15.210Z,12.80
2019-01-04T15:47:06.654Z,12.93
2019-01-04T15:49:57.195Z,14.00
2019-01-04T15:52:47.494Z,13.47
2019-01-04T15:55:38.395Z,13.60
2019-01-04T15:58:29.208Z,13.80
2019-01-04T16:01:19.538Z,13.90
2019-01-04T16:04:09.910Z,15.07
2019-01-04T16:07:00.212Z,14.40
2019-01-04T16:09:50.440Z,14.30
2019-01-04T16:12:40.714Z,14.63
2019-01-04T16:15:31.042Z,14.53
2019-01-04T16:18:21.198Z,14.27
2019-01-04T16:21:11.385Z,14.20
2019-01-04T16:24:01.435Z,14.80
2019-01-04T16:26:51.802Z,13.93
2019-01-04T16:29:41.910Z,18.13
2019-01-04T16:32:32.398Z,18.83
2019-01-04T16:35:22.513Z,17.10
2019-01-04T16:38:12.821Z,14.03
2019-01-04T16:41:02.941Z,18.37
2019-01-04T16:43:52.978Z,19.80
2019-01-04T16:46:42.965Z,16.50
2019-01-04T16:49:37.214Z,15.63
2019-01-04T16:52:27.251Z,16.17
2019-01-04T16:55:17.309Z,15.73
2019-01-04T16:58:07.631Z,16.83
2019-01-04T17:00:57.869Z,15.97
2019-01-04T17:03:48.234Z,17.20
2019-01-04T17:06:38.798Z,17.07
2019-01-04T17:09:29.269Z,18.53
2019-01-04T17:12:20.109Z,18.07
2019-01-04T17:15:10.135Z,19.67
2019-01-04T17:18:00.380Z,19.50
2019-01-04T17:20:50.738Z,21.03
2019-01-04T17:23:40.942Z,21.10
2019-01-04T17:26:31.336Z,21.43
2019-01-04T17:29:21.338Z,21.90
2019-01-04T17:32:11.515Z,21.33
2019-01-04T17:35:02.015Z,22.37
2019-01-04T17:37:52.386Z,23.60
2019-01-04T17:40:42.585Z,23.17
2019-01-04T17:43:32.522Z,23.03
2019-01-04T17:46:23.278Z,24.10
2019-01-04T17:49:13.493Z,24.00
2019-01-04T17:52:03.750Z,21.70
2019-01-04T17:54:54.292Z,21.53
2019-01-04T17:57:44.277Z,20.63
2019-01-04T18:00:34.567Z,21.03
2019-01-04T18:03:25.066Z,19.50
2019-01-04T18:06:15.161Z,20.47
2019-01-04T18:09:07.822Z,19.23
2019-01-04T18:11:58.321Z,19.53
2019-01-04T18:14:48.514Z,18.60
2019-01-04T18:17:38.748Z,17.83
2019-01-04T18:20:29.031Z,18.80
2019-01-04T18:23:19.285Z,19.67
2019-01-04T18:26:10.021Z,21.90
2019-01-04T18:29:00.109Z,18.33
2019-01-04T18:31:50.466Z,19.87
2019-01-04T18:34:40.598Z,19.73
2019-01-04T18:37:31.110Z,21.63
2019-01-04T18:40:21.437Z,23.07
2019-01-04T18:43:12.175Z,21.27
2019-01-04T18:46:02.194Z,20.83
2019-01-04T18:48:52.401Z,20.30
2019-01-04T18:51:42.562Z,22.27
2019-01-04T18:54:32.889Z,22.83
2019-01-04T18:57:22.977Z,19.60
2019-01-04T19:00:13.762Z,26.50
2019-01-04T19:03:03.819Z,25.83
2019-01-04T19:05:54.254Z,26.87
2019-01-04T19:08:44.542Z,19.97
2019-01-04T19:11:35.227Z,21.77
2019-01-04T19:14:25.781Z,19.90
2019-01-04T19:17:16.010Z,21.33
2019-01-04T19:20:06.241Z,19.93
2019-01-04T19:22:57.126Z,20.73
2019-01-04T19:25:47.322Z,21.23
2019-01-04T19:28:37.578Z,21.43
2019-01-04T19:31:27.955Z,22.60
2019-01-04T19:34:18.092Z,22.83
2019-01-04T19:37:08.485Z,21.23
2019-01-04T19:39:58.711Z,20.07
2019-01-04T19:42:49.010Z,21.13
2019-01-04T19:45:39.345Z,19.73
2019-01-04T19:48:29.729Z,20.60
2019-01-04T19:51:19.962Z,21.17
2019-01-04T19:54:10.219Z,20.10
2019-01-04T19:57:00.521Z,22.33
2019-01-04T19:59:50.562Z,21.17
2019-01-04T20:02:41.190Z,20.60
2019-01-04T20:06:40.609Z,22.57
2019-01-04T20:10:31.350Z,19.77
2019-01-04T20:14:45.046Z,22.27
2019-01-04T20:17:56.754Z,20.40
2019-01-04T20:21:17.822Z,20.60
2019-01-04T20:24:31.210Z,20.77
2019-01-04T20:27:40.190Z,19.83
2019-01-04T20:30:52.017Z,19.23
2019-01-04T20:34:07.566Z,19.07
2019-01-04T20:37:22.998Z,19.60
2019-01-04T20:40:35.288Z,19.83
2019-01-04T20:43:44.408Z,19.03
2019-01-04T20:47:02.380Z,20.47
2019-01-04T20:50:09.926Z,21.50
2019-01-04T20:53:28.857Z,22.07
2019-01-04T20:56:37.092Z,22.00
2019-01-04T20:59:45.146Z,21.17
2019-01-04T21:02:53.061Z,21.80
2019-01-04T21:06:08.530Z,20.23
2019-01-04T21:09:24.589Z,20.97
2019-01-04T21:12:33.689Z,19.93
2019-01-04T21:15:55.324Z,20.80
2019-01-04T21:19:04.886Z,19.87
2019-01-04T21:22:13.218Z,19.37
2019-01-04T21:25:22.208Z,20.00
2019-01-04T21:28:43.670Z,20.27
2019-01-04T21:32:02.618Z,19.87
2019-01-04T21:35:10.022Z,19.20
2019-01-04T21:38:20.817Z,19.40
2019-01-04T21:41:28.889Z,19.10
2019-01-04T21:44:44.190Z,18.17
2019-01-04T21:47:52.491Z,18.27
2019-01-04T21:51:01.858Z,17.73
2019-01-04T21:54:09.929Z,18.23
2019-01-04T21:57:19.201Z,18.43
2019-01-04T22:00:29.646Z,18.40
2019-01-04T22:03:42.005Z,17.10
2019-01-04T22:06:49.723Z,17.07
2019-01-04T22:09:53.133Z,15.87
2019-01-04T22:12:54.875Z,16.17
2019-01-04T22:16:05.402Z,16.30
2019-01-04T22:19:17.164Z,15.50
2019-01-04T22:22:41.478Z,16.33
2019-01-04T22:25:50.014Z,15.57
2019-01-04T22:29:00.553Z,16.10
2019-01-04T22:32:08.341Z,16.27
2019-01-04T22:35:08.267Z,16.27
2019-01-04T22:38:26.576Z,16.60
2019-01-04T22:41:35.794Z,17.67
2019-01-04T22:44:51.126Z,15.70
2019-01-04T22:47:59.989Z,16.60
2019-01-04T22:51:08.042Z,15.60
2019-01-04T22:54:16.575Z,16.47
2019-01-04T22:57:38.353Z,15.70
2019-01-04T23:00:54.833Z,16.07
2019-01-04T23:04:02.071Z,17.20
2019-01-04T23:07:23.726Z,16.43
2019-01-04T23:10:42.366Z,17.23
2019-01-04T23:13:50.079Z,17.43
2019-01-04T23:17:05.408Z,17.63
2019-01-04T23:20:26.658Z,17.00
2019-01-04T23:23:34.571Z,16.63
2019-01-04T23:26:42.591Z,16.87
2019-01-04T23:30:00.908Z,16.77
2019-01-04T23:33:07.139Z,17.63
2019-01-04T23:36:15.122Z,17.47
2019-01-04T23:39:28.505Z,17.70
2019-01-04T23:42:40.345Z,17.70
2019-01-04T23:45:48.866Z,17.73
2019-01-04T23:48:56.942Z,16.67
2019-01-04T23:52:21.321Z,15.83
2019-01-04T23:55:33.639Z,16.93
2019-01-04T23:58:40.124Z,16.00
